North Little Rock, AR (72199)

11:52 AM CST on February 24, 2017 (GMT -0600)
Park Hill | | Change Station

Elev 417 ft 34.78 °N, 92.27 °W | Updated 27 seconds ago

Overcast
Overcast
63.9 °F
Feels Like 63.9 °F
N
6.5
Wind Variable Wind from West
Gusts 9.8 mph

Today
High -- | Low -- °F
--% Chance of Precip.
Yesterday
High -- | Low -- °F
Precip. -- in
Pressure 29.70 in
Visibility 10.0 miles
Clouds Mostly Cloudy 1600 ft
Overcast 3000 ft
Dew Point 33 °F
Humidity 32%
Rainfall 0.00 in
Snow Depth Not available.
6:44 AM 6:00 PM
Waning Crescent, 4% visible
SPECI KLIT 241721Z 22011KT 10SM BKN016 OVC030 19/14 A2970 RMK AO2 OCNL BINOVC T01890144
Pressure 29.70 in
Visibility 10.0 miles
Clouds Mostly Cloudy 1600 ft
Overcast 3000 ft
Dew Point 33 °F
Humidity 32%
Rainfall 0.00 in
Snow Depth Not available.
6:44 AM 6:00 PM
Waning Crescent, 4% visible
SPECI KLIT 241721Z 22011KT 10SM BKN016 OVC030 19/14 A2970 RMK AO2 OCNL BINOVC T01890144

Get Your Daily Forecast Email!

Thanks for signing up!

Be on the lookout for a verification email in your inbox.

You'll start receiving the daily forecast at 8 AM.

×

10-Day Weather Forecast

Almanac

Astronomy

Feb. 24, 2017 Rise Set
Actual Time
Civil Twilight
Nautical Twilight
Astronomical Twilight
Moon
Length of Visible Light
Length of Day
Tomorrow will be .
, % of the Moon is Illuminated

Today's Extremes

State Highs State Lows

Community

WunderPhotos

Upload Photos

1,962,540 photos uploaded!

WunderBlog® & News

Nearby

Air Quality

  Air Quality AQ Index Pollutant
Not available.

Snow Depth

Station Depth Elevation

Earthquake Activity

City Distance Mag. Time & Date
Minimum magnitude displayed is 2.5.

Coastal Water Temperatures

Place Temperature

Stations

Nearby Weather Stations

Station Location Temp. Windchill Dew Point Humidity Wind Precip. Elev Updated Type
                   

Watches & Warnings

There are currently no watches in effect.